Foster, Missouri
Current Conditions -  °F | °C
As of 1:55 PM on Friday 24 Oct 2014 (Local Time) from KGLY Reporting Station
Haze Haze  
Wind Chill: 72°   Ceiling: Unl
Heat Index: 72°   Visibility: 4mi
Dew Point: 61°   Wind: 7mph
Humidity: 69%   Direction: 190°S
Pressure: 30.04"   Gusts: NA
Location:  38.17°N, 94.51°W
Report Text: KGLY 241855Z AUTO 19006KT 4SM HZ CLR 22/16 A3004 RMK AO2
Loading
Personal Weather Stations






























Interactive Weather Map
Tropical Storm Tracking
New forecast layout! Learn more

10-Day Weather Forecast

Advertisements
Track Severe Weather on mobile